Time;durP1;ratioP1;P1;durP2;ratioP2;P2;SDS_P1;SDS_P2;PMS_P1;PMS_P2;Temp;Humidity;BMP_temperature;BMP_pressure;BME280_temperature;BME280_humidity;BME280_pressure;Samples;Min_cycle;Max_cycle;Signal;HPM_P1;HPM_P2
2023/02/12 00:00:37;;;;;;;5.72;2.95;;;;;;;0.80;96.63;98024.22;5109230;28;20043;-62
2023/02/12 00:03:03;;;;;;;6.85;2.53;;;;;;;1.00;95.90;98062.13;5108587;28;20052;-63
2023/02/12 00:05:30;;;;;;;5.82;2.50;;;;;;;0.98;95.37;98060.50;5107381;28;20515;-62
2023/02/12 00:07:55;;;;;;;3.83;2.20;;;;;;;0.97;94.66;98074.16;5104458;28;20043;-63
2023/02/12 00:10:22;;;;;;;6.03;2.50;;;;;;;0.90;93.69;98063.22;5106602;28;20055;-62
2023/02/12 00:12:48;;;;;;;3.92;2.13;;;;;;;0.91;93.09;98085.38;5106712;28;20042;-62
2023/02/12 00:15:13;;;;;;;3.55;2.05;;;;;;;0.87;92.59;98082.91;5089546;28;20031;-62
2023/02/12 00:17:39;;;;;;;5.25;2.22;;;;;;;0.89;92.03;98099.09;5107866;28;20042;-63
2023/02/12 00:20:06;;;;;;;5.57;2.08;;;;;;;0.84;91.62;98104.28;5107983;28;20035;-62
2023/02/12 00:22:32;;;;;;;4.88;1.70;;;;;;;0.82;91.25;98113.72;5089514;28;20031;-62
2023/02/12 00:24:58;;;;;;;5.25;2.45;;;;;;;0.60;90.62;98092.84;5108648;28;20042;-62
2023/02/12 00:27:24;;;;;;;4.28;2.20;;;;;;;0.76;90.55;98119.78;5106977;28;20415;-62
2023/02/12 00:29:50;;;;;;;4.10;2.17;;;;;;;0.63;90.07;98125.19;5110032;27;20035;-63
2023/02/12 00:32:18;;;;;;;4.18;2.45;;;;;;;0.65;89.62;98136.22;5108313;28;20035;-62
2023/02/12 00:34:48;;;;;;;5.15;2.60;;;;;;;0.61;89.48;98148.22;5074910;28;20050;-62
2023/02/12 00:37:15;;;;;;;6.85;3.25;;;;;;;0.56;89.12;98156.88;5107981;28;20031;-62
2023/02/12 00:39:41;;;;;;;5.55;3.22;;;;;;;0.44;88.83;98150.25;5107687;28;20560;-62
2023/02/12 00:42:07;;;;;;;6.07;3.13;;;;;;;0.47;88.86;98177.50;5084814;28;20115;-62
2023/02/12 00:44:33;;;;;;;5.93;2.78;;;;;;;0.43;88.25;98174.97;5105593;28;20052;-63
2023/02/12 00:47:04;;;;;;;6.78;3.47;;;;;;;0.43;88.43;98189.47;5108587;28;20052;-59
2023/02/12 00:49:34;;;;;;;4.97;2.85;;;;;;;0.40;88.11;98182.72;5091313;28;20076;-65
2023/02/12 00:52:01;;;;;;;5.32;2.95;;;;;;;0.39;88.03;98190.41;5108286;28;20129;-63
2023/02/12 00:54:27;;;;;;;5.72;2.80;;;;;;;0.34;88.26;98198.16;5087487;28;20036;-62
2023/02/12 00:56:54;;;;;;;7.97;3.20;;;;;;;0.28;88.14;98194.84;5088913;28;20043;-61
2023/02/12 00:59:22;;;;;;;7.28;3.30;;;;;;;0.29;88.21;98206.75;5103452;28;20122;-61
2023/02/12 01:01:48;;;;;;;6.43;3.67;;;;;;;-0.01;87.44;98177.47;5069993;28;20048;-61
2023/02/12 01:04:14;;;;;;;7.85;3.45;;;;;;;0.27;87.75;98228.94;5088177;28;20172;-61
2023/02/12 01:06:40;;;;;;;6.63;3.15;;;;;;;0.07;87.15;98213.09;5109171;28;20035;-61
2023/02/12 01:09:06;;;;;;;9.73;3.10;;;;;;;0.17;86.74;98243.56;5090532;28;20133;-62
2023/02/12 01:11:32;;;;;;;6.65;3.45;;;;;;;0.16;86.26;98254.66;5109294;28;20051;-61
2023/02/12 01:13:59;;;;;;;7.53;3.50;;;;;;;0.12;86.06;98260.69;5109124;28;20036;-62
2023/02/12 01:16:25;;;;;;;5.60;2.88;;;;;;;0.09;85.52;98257.34;5108215;28;20049;-61
2023/02/12 01:18:52;;;;;;;6.50;3.72;;;;;;;-0.09;85.44;98240.59;5077939;28;20040;-61
2023/02/12 01:21:21;;;;;;;7.75;3.45;;;;;;;-0.17;85.28;98244.97;5070626;28;20126;-61
2023/02/12 01:23:48;;;;;;;9.83;3.17;;;;;;;0.03;85.30;98288.94;5073017;28;20044;-62
2023/02/12 01:26:15;;;;;;;7.13;3.45;;;;;;;0.00;85.16;98302.59;5107568;28;20074;-61
2023/02/12 01:28:43;;;;;;;6.65;3.08;;;;;;;-0.03;84.83;98306.91;5073527;28;20077;-62
2023/02/12 01:31:12;;;;;;;9.27;3.22;;;;;;;-0.05;84.35;98317.13;5108626;28;20032;-61
2023/02/12 01:33:38;;;;;;;6.25;3.28;;;;;;;-0.17;84.68;98298.59;5107460;28;20075;-61
2023/02/12 01:36:04;;;;;;;7.43;3.33;;;;;;;-0.14;84.35;98322.38;5090912;28;20070;-61
2023/02/12 01:38:30;;;;;;;6.38;3.13;;;;;;;-0.09;84.03;98340.19;5086380;28;20097;-61
2023/02/12 01:41:08;;;;;;;6.43;3.22;;;;;;;-0.12;83.80;98343.66;5087370;28;20044;-62
2023/02/12 01:43:35;;;;;;;5.68;2.72;;;;;;;-0.16;83.45;98348.81;5087060;28;20063;-63
2023/02/12 01:46:04;;;;;;;7.22;3.20;;;;;;;-0.16;83.51;98341.97;5088746;28;20146;-62
2023/02/12 01:48:38;;;;;;;7.15;2.92;;;;;;;-0.17;83.65;98359.91;5093123;28;20047;-61
2023/02/12 01:51:05;;;;;;;7.55;2.80;;;;;;;-0.17;83.28;98372.66;5090663;28;20121;-61
2023/02/12 01:53:37;;;;;;;8.48;2.65;;;;;;;-0.21;83.02;98381.25;5086913;28;20154;-61
2023/02/12 01:56:05;;;;;;;5.85;2.80;;;;;;;-0.23;82.96;98390.59;5088537;28;20040;-61
2023/02/12 01:58:34;;;;;;;5.60;2.75;;;;;;;-0.24;83.03;98396.56;5053225;28;20036;-62
2023/02/12 02:01:02;;;;;;;4.88;2.38;;;;;;;-0.30;82.79;98389.84;5095471;28;20044;-61
2023/02/12 02:03:31;;;;;;;5.45;2.55;;;;;;;-0.56;82.21;98362.06;5106311;28;20078;-61
2023/02/12 02:06:03;;;;;;;6.82;3.03;;;;;;;-0.31;82.50;98415.38;5108647;28;20046;-63
2023/02/12 02:08:30;;;;;;;4.38;1.75;;;;;;;-0.55;82.34;98379.06;5073362;28;20035;-61
2023/02/12 02:10:56;;;;;;;7.70;2.40;;;;;;;-0.39;82.53;98415.47;5090378;28;20040;-62
2023/02/12 02:16:26;;;;;;;3.97;2.00;;;;;;;-0.49;82.14;98426.66;5106620;28;20048;-61
2023/02/12 02:18:57;;;;;;;2.58;1.55;;;;;;;-0.69;82.07;98400.50;5107033;28;20032;-62
2023/02/12 02:21:56;;;;;;;3.28;1.73;;;;;;;-0.50;82.14;98440.25;5108486;28;20097;-61
2023/02/12 02:24:34;;;;;;;4.43;1.60;;;;;;;-0.50;81.88;98451.31;5108202;28;20063;-60
2023/02/12 02:27:16;;;;;;;3.42;1.67;;;;;;;-0.50;82.16;98458.97;5108567;28;20518;-61
2023/02/12 02:30:08;;;;;;;2.80;1.55;;;;;;;-0.53;81.73;98460.72;5107813;28;20118;-61
2023/02/12 02:33:03;;;;;;;4.45;1.80;;;;;;;-0.57;81.75;98472.66;5109751;28;20036;-62
2023/02/12 02:35:37;;;;;;;4.65;1.85;;;;;;;-0.58;81.62;98475.25;5093137;28;20126;-61
2023/02/12 02:38:12;;;;;;;3.45;2.08;;;;;;;-0.57;81.49;98489.66;5089268;28;20515;-60
2023/02/12 02:40:47;;;;;;;5.10;2.25;;;;;;;-0.78;81.47;98466.91;5107375;28;20035;-60
2023/02/12 02:43:21;;;;;;;6.90;2.30;;;;;;;-0.55;81.58;98510.94;5110570;28;20217;-61
2023/02/12 02:45:53;;;;;;;6.20;2.40;;;;;;;-0.57;81.85;98516.03;5093708;28;20404;-61
2023/02/12 02:48:25;;;;;;;4.63;2.60;;;;;;;-0.55;81.83;98527.09;5093510;28;20059;-60
2023/02/12 02:51:10;;;;;;;5.80;2.40;;;;;;;-0.57;81.75;98539.00;5109708;28;20078;-60
2023/02/12 02:53:41;;;;;;;5.22;2.33;;;;;;;-0.60;81.67;98528.84;5111998;28;20043;-61
2023/02/12 02:56:13;;;;;;;5.43;2.47;;;;;;;-0.61;82.01;98547.56;5109687;28;20039;-61
2023/02/12 02:58:42;;;;;;;7.80;3.40;;;;;;;-0.63;82.24;98548.44;5110420;28;20579;-60
2023/02/12 03:01:22;;;;;;;6.43;2.88;;;;;;;-0.62;81.94;98557.78;5093310;28;20450;-62
2023/02/12 03:03:53;;;;;;;5.97;2.85;;;;;;;-0.62;81.85;98566.28;5110211;28;20096;-60
2023/02/12 03:06:26;;;;;;;7.53;2.78;;;;;;;-0.68;82.02;98570.59;5108229;28;20046;-60
2023/02/12 03:08:59;;;;;;;7.15;2.92;;;;;;;-0.83;81.62;98545.19;5111396;28;20423;-62
2023/02/12 03:11:27;;;;;;;7.82;2.70;;;;;;;-0.70;81.78;98585.06;5109784;28;20511;-61
2023/02/12 03:14:05;;;;;;;5.47;2.20;;;;;;;-0.70;82.13;98579.97;5111382;28;20134;-60
2023/02/12 03:16:34;;;;;;;9.50;2.92;;;;;;;-0.70;82.05;98596.13;5110619;28;20073;-62
2023/02/12 03:19:19;;;;;;;13.70;3.00;;;;;;;-0.93;81.53;98560.56;5110021;28;20043;-61
2023/02/12 03:21:49;;;;;;;3.83;2.33;;;;;;;-0.68;81.65;98614.81;5109841;28;20035;-60
2023/02/12 03:24:47;;;;;;;4.90;2.30;;;;;;;-0.74;81.86;98621.69;5109966;28;20066;-60
2023/02/12 03:27:21;;;;;;;7.70;2.50;;;;;;;-0.81;81.84;98625.09;5073954;28;20142;-52
2023/02/12 03:29:47;;;;;;;3.08;1.80;;;;;;;-0.84;81.46;98633.66;5111139;28;20055;-61
2023/02/12 03:32:16;;;;;;;8.32;1.80;;;;;;;-0.89;81.76;98638.75;5110737;28;20506;-61
2023/02/12 03:34:46;;;;;;;5.20;1.65;;;;;;;-0.89;81.19;98645.59;5109230;28;20142;-61
2023/02/12 03:37:34;;;;;;;5.63;1.88;;;;;;;-0.92;81.31;98646.44;5109831;28;20582;-59
2023/02/12 03:40:10;;;;;;;5.45;2.08;;;;;;;-0.92;81.14;98650.69;5108461;28;20206;-62
2023/02/12 03:42:51;;;;;;;3.47;1.73;;;;;;;-0.92;81.13;98673.63;5108475;28;20047;-61
2023/02/12 03:45:22;;;;;;;6.40;1.70;;;;;;;-0.99;80.70;98675.38;5109741;28;20143;-60
2023/02/12 03:47:52;;;;;;;5.80;2.35;;;;;;;-1.00;80.41;98672.84;5109285;28;20043;-61
2023/02/12 03:50:28;;;;;;;6.35;1.90;;;;;;;-1.03;80.47;98668.59;5109171;28;20074;-61
2023/02/12 03:52:53;;;;;;;9.27;2.13;;;;;;;-1.00;80.20;98678.78;5109241;28;20043;-61
2023/02/12 03:55:19;;;;;;;3.80;1.75;;;;;;;-1.05;80.10;98688.16;5091692;28;20129;-62
2023/02/12 03:57:58;;;;;;;6.47;2.45;;;;;;;-1.01;80.11;98701.75;5108521;28;20027;-57
2023/02/12 04:00:25;;;;;;;4.07;1.67;;;;;;;-1.00;79.71;98706.84;5109397;28;20122;-59
2023/02/12 04:02:51;;;;;;;6.80;2.22;;;;;;;-1.37;79.31;98646.66;5106804;28;20552;-61
2023/02/12 04:05:23;;;;;;;4.80;1.63;;;;;;;-1.02;78.97;98718.75;5108466;28;20044;-61
2023/02/12 04:07:49;;;;;;;4.78;2.28;;;;;;;-1.04;78.51;98715.34;5110210;28;20027;-57
2023/02/12 04:10:16;;;;;;;4.88;1.83;;;;;;;-1.07;78.01;98717.91;5109901;28;20043;-65
2023/02/12 04:12:53;;;;;;;2.03;1.10;;;;;;;-1.09;77.83;98732.38;5108400;28;20098;-60
2023/02/12 04:15:43;;;;;;;4.80;1.80;;;;;;;-1.13;77.09;98734.94;5108008;28;20423;-63
2023/02/12 04:18:35;;;;;;;3.65;1.42;;;;;;;-1.16;76.90;98740.06;5091901;28;20039;-60
2023/02/12 04:21:16;;;;;;;4.63;1.80;;;;;;;-1.20;76.72;98736.66;5108424;28;20035;-61
2023/02/12 04:24:11;;;;;;;3.85;1.55;;;;;;;-1.19;76.63;98756.19;5108819;28;20123;-61
2023/02/12 04:27:20;;;;;;;6.63;1.65;;;;;;;-1.22;76.29;98757.91;5108312;28;20172;-59
2023/02/12 04:29:58;;;;;;;11.05;1.35;;;;;;;-1.24;76.03;98764.72;5027052;28;20045;-61
2023/02/12 04:32:24;;;;;;;4.50;1.42;;;;;;;-1.27;75.98;98774.94;4993840;28;20073;-61
2023/02/12 04:35:17;;;;;;;4.47;1.70;;;;;;;-1.25;75.84;98781.69;5074543;27;20132;-62
2023/02/12 04:37:58;;;;;;;3.15;1.40;;;;;;;-1.24;75.78;98791.06;5089482;28;20089;-61
2023/02/12 04:40:24;;;;;;;3.00;1.60;;;;;;;-1.46;75.19;98754.53;5071306;28;20055;-61
2023/02/12 04:42:51;;;;;;;5.75;1.77;;;;;;;-1.26;75.03;98791.94;5086111;28;20456;-57
2023/02/12 04:45:26;;;;;;;3.70;1.60;;;;;;;-1.30;74.80;98806.34;5091519;28;20039;-62
2023/02/12 04:47:52;;;;;;;4.63;1.33;;;;;;;-1.31;74.52;98819.97;5109542;28;20047;-61
2023/02/12 04:50:19;;;;;;;3.40;1.30;;;;;;;-1.34;74.38;98802.97;5108205;28;20035;-61
2023/02/12 04:52:45;;;;;;;3.38;1.25;;;;;;;-1.34;74.40;98818.28;5107883;28;20126;-61
2023/02/12 04:55:11;;;;;;;4.55;1.27;;;;;;;-1.33;73.89;98824.22;5108916;28;20059;-61
2023/02/12 04:57:37;;;;;;;2.65;1.10;;;;;;;-1.35;74.00;98846.31;5108904;28;20063;-60
2023/02/12 05:00:05;;;;;;;5.25;1.25;;;;;;;-1.36;73.62;98842.09;5109455;28;20124;-62
2023/02/12 05:02:35;;;;;;;1.77;0.87;;;;;;;-1.39;73.34;98853.13;5107344;28;20032;-61
2023/02/12 05:05:01;;;;;;;6.30;1.38;;;;;;;-1.36;73.62;98863.28;5089030;28;20092;-61
2023/02/12 05:07:27;;;;;;;5.00;1.30;;;;;;;-1.34;73.79;98866.72;5088771;28;20036;-60
2023/02/12 05:09:53;;;;;;;1.92;0.90;;;;;;;-1.34;73.54;98865.84;5087547;28;20588;-60
2023/02/12 05:12:19;;;;;;;1.88;0.73;;;;;;;-1.33;73.59;98873.50;5095728;28;20040;-63
2023/02/12 05:14:45;;;;;;;3.72;1.38;;;;;;;-1.35;73.58;98877.75;5108477;28;20032;-61
2023/02/12 05:17:11;;;;;;;5.03;1.10;;;;;;;-1.32;73.56;98885.41;5109117;28;20031;-59
2023/02/12 05:19:37;;;;;;;3.70;1.10;;;;;;;-1.54;73.76;98855.66;5107747;28;20036;-61
2023/02/12 05:22:02;;;;;;;6.88;1.08;;;;;;;-1.27;73.58;98898.16;5106843;28;20046;-61
2023/02/12 05:24:28;;;;;;;2.67;0.60;;;;;;;-1.27;73.65;98917.69;5108762;28;20036;-61
2023/02/12 05:26:54;;;;;;;3.53;1.20;;;;;;;-1.27;73.65;98922.81;5107290;28;20526;-60
2023/02/12 05:29:20;;;;;;;2.70;0.88;;;;;;;-1.27;73.48;98916.00;5109057;28;20102;-61
2023/02/12 05:31:46;;;;;;;5.53;1.10;;;;;;;-1.22;73.59;98918.56;5107342;28;20039;-60
2023/02/12 05:34:12;;;;;;;3.58;0.80;;;;;;;-1.27;73.58;98933.84;5108567;28;20042;-61
2023/02/12 05:36:38;;;;;;;2.83;0.70;;;;;;;-1.32;73.70;98910.91;5107484;28;20536;-60
2023/02/12 05:39:06;;;;;;;2.40;0.80;;;;;;;-1.31;73.47;98942.34;5108743;28;20076;-60
2023/02/12 05:41:34;;;;;;;2.85;0.95;;;;;;;-1.33;73.34;98956.78;5106696;28;20051;-60
2023/02/12 05:44:04;;;;;;;2.72;0.85;;;;;;;-1.34;73.22;98950.84;5108356;28;20146;-61
2023/02/12 05:46:30;;;;;;;3.08;0.98;;;;;;;-1.64;73.17;98920.22;5107821;28;20036;-61
2023/02/12 05:48:56;;;;;;;5.65;1.00;;;;;;;-1.43;73.07;98955.94;5107404;28;20097;-60
2023/02/12 05:51:24;;;;;;;4.05;1.00;;;;;;;-1.43;73.07;98960.16;5108585;28;20063;-60
2023/02/12 05:53:52;;;;;;;5.18;1.10;;;;;;;-1.46;73.01;98966.09;5089338;28;20445;-61
2023/02/12 05:56:24;;;;;;;4.28;0.95;;;;;;;-1.46;73.06;98975.44;5087022;28;20062;-60
2023/02/12 05:58:55;;;;;;;1.52;0.82;;;;;;;-1.42;72.88;98985.69;5087163;28;20134;-61
2023/02/12 06:01:28;;;;;;;1.50;0.70;;;;;;;-1.43;72.84;98986.50;5087142;28;20127;-59
2023/02/12 06:03:54;;;;;;;3.42;0.80;;;;;;;-1.40;72.79;98983.09;5088894;28;20048;-60
2023/02/12 06:06:20;;;;;;;7.32;0.90;;;;;;;-1.41;72.78;98991.59;5109145;28;20039;-60
2023/02/12 06:08:50;;;;;;;1.40;1.02;;;;;;;-1.38;72.54;99002.66;5111270;28;20044;-60
2023/02/12 06:11:16;;;;;;;2.08;1.00;;;;;;;-1.36;72.54;98993.31;5110550;28;20495;-61
2023/02/12 06:13:42;;;;;;;4.13;0.60;;;;;;;-1.37;72.28;99008.63;5111722;28;20787;-61
2023/02/12 06:16:22;;;;;;;2.65;0.90;;;;;;;-1.39;72.00;99010.31;5110936;28;20527;-62
2023/02/12 06:18:48;;;;;;;3.25;0.80;;;;;;;-1.60;71.56;98977.97;5112516;28;20051;-60
2023/02/12 06:21:15;;;;;;;2.55;0.70;;;;;;;-1.33;71.40;99023.06;5093544;28;20085;-61
2023/02/12 06:23:41;;;;;;;4.55;1.40;;;;;;;-1.27;71.29;99034.97;5111387;28;20130;-60
2023/02/12 06:26:07;;;;;;;4.15;0.60;;;;;;;-1.30;71.02;99039.22;5110757;27;20163;-61
2023/02/12 06:28:32;;;;;;;2.65;0.60;;;;;;;-1.28;70.66;99051.97;5111689;28;20063;-63
2023/02/12 06:30:58;;;;;;;2.08;0.73;;;;;;;-1.26;70.56;99070.69;5110743;28;20039;-60
2023/02/12 06:33:24;;;;;;;2.35;0.77;;;;;;;-1.25;70.83;99068.97;5109616;28;20039;-62
2023/02/12 06:35:50;;;;;;;2.15;0.75;;;;;;;-1.42;71.00;99049.41;5111938;28;20454;-61
2023/02/12 06:38:16;;;;;;;1.05;0.50;;;;;;;-1.19;70.57;99086.84;5093206;28;20031;-62
2023/02/12 06:40:42;;;;;;;4.28;0.70;;;;;;;-1.18;70.36;99093.66;5093637;28;20503;-61
2023/02/12 06:43:08;;;;;;;2.05;0.70;;;;;;;-1.20;70.21;99093.63;5110673;28;20044;-61
2023/02/12 06:45:34;;;;;;;2.58;0.70;;;;;;;-1.21;69.96;99112.34;5111530;28;20047;-61
2023/02/12 06:48:00;;;;;;;1.88;0.60;;;;;;;-1.41;70.28;99074.03;5109935;28;20046;-61
2023/02/12 06:50:26;;;;;;;3.42;0.68;;;;;;;-1.25;69.58;99113.16;5090492;28;20051;-62
2023/02/12 06:52:52;;;;;;;1.60;0.60;;;;;;;-1.25;69.76;99118.25;5093607;28;20123;-62
2023/02/12 06:55:18;;;;;;;3.42;0.80;;;;;;;-1.28;69.68;99115.72;5092315;28;20131;-61
2023/02/12 06:57:43;;;;;;;3.13;0.82;;;;;;;-1.23;69.35;99119.13;5104291;28;20581;-62
2023/02/12 07:00:10;;;;;;;5.60;0.70;;;;;;;-1.22;69.53;99136.16;5090996;28;20047;-61
2023/02/12 07:02:36;;;;;;;2.35;0.90;;;;;;;-1.23;68.83;99134.44;5075690;28;20582;-60
2023/02/12 07:05:03;;;;;;;4.03;0.95;;;;;;;-1.19;68.98;99142.94;5111383;28;20050;-62
2023/02/12 07:07:29;;;;;;;1.45;0.60;;;;;;;-1.15;68.51;99139.59;5109942;28;20047;-62
2023/02/12 07:09:55;;;;;;;3.40;0.70;;;;;;;-1.36;68.21;99125.88;5109131;28;20466;-60
2023/02/12 07:12:21;;;;;;;1.85;0.65;;;;;;;-1.21;68.12;99167.59;5109478;28;20035;-62
2023/02/12 07:14:47;;;;;;;2.92;0.60;;;;;;;-1.23;67.96;99161.63;5089191;28;20080;-61
2023/02/12 07:17:12;;;;;;;5.22;0.88;;;;;;;-1.16;67.81;99171.03;5089396;28;20032;-60
2023/02/12 07:19:38;;;;;;;1.27;0.60;;;;;;;-1.17;67.61;99166.75;5089204;28;20070;-61
2023/02/12 07:22:04;;;;;;;4.57;1.15;;;;;;;-1.30;67.62;99130.16;5089441;28;20459;-61
2023/02/12 07:24:30;;;;;;;2.83;0.70;;;;;;;-1.11;67.35;99169.34;5109058;28;20036;-61
2023/02/12 07:26:56;;;;;;;0.47;0.43;;;;;;;-1.05;66.90;99161.72;5092695;28;20036;-62
2023/02/12 07:29:22;;;;;;;5.25;0.68;;;;;;;-1.02;66.60;99175.31;5110367;28;20540;-61
2023/02/12 07:31:48;;;;;;;3.05;0.75;;;;;;;-0.92;66.25;99181.31;5109455;28;20043;-61
2023/02/12 07:34:13;;;;;;;3.58;0.70;;;;;;;-0.83;66.40;99186.44;5091674;28;20121;-61
2023/02/12 07:36:39;;;;;;;2.42;1.00;;;;;;;-0.80;66.12;99194.13;5092576;28;20079;-60
2023/02/12 07:39:05;;;;;;;4.28;0.90;;;;;;;-0.80;65.81;99190.72;5105419;28;20040;-62
2023/02/12 07:41:33;;;;;;;0.80;0.40;;;;;;;-0.78;66.18;99189.84;5110562;28;20410;-61
2023/02/12 07:44:09;;;;;;;2.85;0.75;;;;;;;-1.19;65.77;99125.94;5091833;28;20077;-62
2023/02/12 07:46:43;;;;;;;1.40;0.60;;;;;;;-0.73;65.81;99200.91;5109117;28;20043;-56
2023/02/12 07:49:15;;;;;;;5.45;1.15;;;;;;;-0.78;65.74;99205.16;5110564;28;20063;-62
2023/02/12 07:51:41;;;;;;;1.52;0.52;;;;;;;-0.79;65.31;99215.38;5108831;28;20046;-61
2023/02/12 07:54:08;;;;;;;3.97;0.70;;;;;;;-0.84;65.08;99227.28;5110502;28;20526;-60
2023/02/12 07:56:36;;;;;;;1.15;0.63;;;;;;;-0.92;64.80;99230.63;5093219;28;20065;-63
2023/02/12 07:59:05;;;;;;;3.45;0.85;;;;;;;-1.26;64.59;99174.38;5103126;28;20035;-62
2023/02/12 08:01:32;;;;;;;2.57;0.87;;;;;;;-0.82;64.58;99236.63;5107949;28;20093;-61
2023/02/12 08:04:07;;;;;;;1.42;0.70;;;;;;;-0.77;64.30;99227.28;5101424;28;20285;-61
2023/02/12 08:06:35;;;;;;;1.48;0.60;;;;;;;-0.63;64.46;99252.88;5081663;28;20241;-45
2023/02/12 08:09:03;;;;;;;1.98;0.90;;;;;;;-0.59;63.90;99252.03;5105356;28;20122;-56
2023/02/12 08:11:30;;;;;;;4.68;0.88;;;;;;;-0.47;64.01;99257.16;5101221;28;20047;-60
2023/02/12 08:13:57;;;;;;;4.03;0.98;;;;;;;-0.44;63.80;99254.63;5104941;28;20085;-58
2023/02/12 08:16:24;;;;;;;2.30;0.90;;;;;;;-0.48;63.78;99269.09;5100494;28;20483;-55
2023/02/12 08:18:50;;;;;;;2.28;0.80;;;;;;;-0.70;63.29;99240.94;5096516;28;20070;-55
2023/02/12 08:21:22;;;;;;;1.80;0.85;;;;;;;-0.52;63.35;99267.34;5099717;28;20139;-54
2023/02/12 08:23:51;;;;;;;3.80;1.20;;;;;;;-0.54;63.64;99274.16;5098243;28;20535;-57
2023/02/12 08:26:23;;;;;;;3.42;0.90;;;;;;;-0.57;63.24;99286.06;5097042;28;20036;-61
2023/02/12 08:28:52;;;;;;;6.53;1.17;;;;;;;-0.59;63.20;99295.44;5098236;28;20039;-57
2023/02/12 08:31:25;;;;;;;2.88;0.85;;;;;;;-0.59;63.14;99303.94;5096235;28;20556;-64
2023/02/12 08:33:52;;;;;;;2.55;1.05;;;;;;;-0.58;63.10;99303.09;5099642;28;20043;-58
2023/02/12 08:36:24;;;;;;;4.25;1.00;;;;;;;-0.61;63.09;99315.81;5099656;28;20039;-58
2023/02/12 08:38:50;;;;;;;1.52;0.70;;;;;;;-0.58;63.16;99303.09;5099437;28;20161;-61
2023/02/12 08:41:19;;;;;;;3.63;0.60;;;;;;;-0.69;62.82;99288.59;5099377;28;20454;-61
2023/02/12 08:43:45;;;;;;;3.77;0.80;;;;;;;-0.47;62.59;99308.22;5061984;28;20052;-59
2023/02/12 08:46:16;;;;;;;2.42;0.80;;;;;;;-0.46;62.28;99308.22;5098386;28;20036;-59
2023/02/12 08:48:43;;;;;;;5.55;1.58;;;;;;;-0.43;62.33;99310.81;5096782;28;20043;-60
2023/02/12 08:51:15;;;;;;;3.15;0.90;;;;;;;-0.45;61.63;99314.19;5099587;28;20574;-62
2023/02/12 08:53:43;;;;;;;5.20;0.85;;;;;;;-0.38;61.65;99323.59;5105418;28;20028;-61
2023/02/12 08:56:10;;;;;;;2.45;0.73;;;;;;;-0.28;61.58;99321.91;5097184;28;20048;-60
2023/02/12 08:58:36;;;;;;;3.88;0.85;;;;;;;-0.23;61.57;99313.41;5067836;28;20040;-62
2023/02/12 09:01:04;;;;;;;4.22;1.77;;;;;;;-0.19;61.26;99324.50;5098594;28;20047;-62
2023/02/12 09:03:30;;;;;;;0.85;0.52;;;;;;;-0.14;60.64;99321.09;5103191;28;20118;-61
2023/02/12 09:05:56;;;;;;;6.43;1.40;;;;;;;-0.12;60.24;99334.75;5079582;28;20040;-57
2023/02/12 09:08:22;;;;;;;3.80;1.65;;;;;;;-0.13;60.42;99335.59;5097318;28;20063;-57
2023/02/12 09:10:48;;;;;;;3.17;2.25;;;;;;;-0.09;60.23;99341.53;5100292;28;20506;-59
2023/02/12 09:13:14;;;;;;;1.98;0.70;;;;;;;-0.12;59.62;99336.44;5095455;28;20051;-56
2023/02/12 09:15:42;;;;;;;3.53;0.70;;;;;;;0.10;59.80;99350.97;5105593;28;20040;-60
2023/02/12 09:18:09;;;;;;;5.20;1.00;;;;;;;-0.01;59.27;99340.75;5108873;28;20185;-58
2023/02/12 09:20:40;;;;;;;3.22;0.70;;;;;;;1.03;58.27;99358.69;5063937;28;20147;-60
2023/02/12 09:23:07;;;;;;;5.63;0.93;;;;;;;1.01;58.41;99357.81;5088382;28;20040;-61
2023/02/12 09:25:34;;;;;;;4.78;0.70;;;;;;;0.87;58.15;99359.53;5095104;28;20047;-61
2023/02/12 09:28:01;;;;;;;3.05;0.93;;;;;;;0.55;58.26;99328.84;5100587;28;20054;-61
2023/02/12 09:30:27;;;;;;;10.40;1.30;;;;;;;0.53;58.29;99315.19;5086571;28;20641;-60
2023/02/12 09:32:54;;;;;;;4.50;1.17;;;;;;;1.05;57.82;99370.59;5087557;28;20070;-62
2023/02/12 09:35:19;;;;;;;1.33;0.77;;;;;;;1.03;57.67;99362.09;5102915;28;20447;-60
2023/02/12 09:37:45;;;;;;;1.85;0.75;;;;;;;1.93;56.65;99356.69;5097209;28;20032;-60
2023/02/12 09:40:58;;;;;;;2.30;0.57;;;;;;;2.55;55.33;99371.69;5102588;28;20582;-60
2023/02/12 09:43:51;;;;;;;2.88;0.95;;;;;;;2.57;54.68;99380.22;5076663;28;20071;-60
2023/02/12 09:46:48;;;;;;;1.30;0.47;;;;;;;3.65;52.51;99367.22;5109136;28;20050;-55
2023/02/12 09:49:33;;;;;;;8.48;2.20;;;;;;;3.31;53.02;99373.56;5101880;28;20507;-60
2023/02/12 09:51:59;;;;;;;5.05;0.90;;;;;;;2.97;53.09;99339.69;5109566;28;20043;-57
2023/02/12 09:54:33;;;;;;;3.90;0.80;;;;;;;3.97;51.98;99371.97;5110328;28;20031;-60
2023/02/12 09:57:01;;;;;;;2.97;0.70;;;;;;;3.65;52.29;99376.66;5093462;28;20039;-55
2023/02/12 09:59:34;;;;;;;2.40;0.60;;;;;;;4.87;49.83;99378.34;5107216;28;20065;-54
2023/02/12 10:02:00;;;;;;;1.40;0.75;;;;;;;4.84;50.30;99373.25;5112167;28;20428;-51
2023/02/12 10:04:26;;;;;;;2.42;0.90;;;;;;;5.49;48.45;99387.59;5094262;28;20039;-57
2023/02/12 10:07:20;;;;;;;2.70;1.00;;;;;;;4.69;49.07;99384.66;5112433;28;20051;-53
2023/02/12 10:10:14;;;;;;;2.65;0.80;;;;;;;4.04;49.57;99360.72;5110168;28;20202;-55
2023/02/12 10:12:50;;;;;;;3.03;0.82;;;;;;;3.70;50.36;99408.28;5106628;28;20426;-55
2023/02/12 10:15:43;;;;;;;2.75;1.23;;;;;;;3.44;50.79;99402.56;5092464;28;20063;-69
2023/02/12 10:18:19;;;;;;;3.17;0.60;;;;;;;2.92;51.39;99406.47;5105535;28;20491;-56
2023/02/12 10:20:56;;;;;;;3.35;0.98;;;;;;;2.57;51.51;99390.47;5073755;28;20044;-63
2023/02/12 10:23:34;;;;;;;8.05;1.10;;;;;;;2.66;52.15;99416.09;5085826;28;20062;-45
2023/02/12 10:26:24;;;;;;;0.90;0.40;;;;;;;2.39;51.89;99408.56;5093669;28;20514;-63
2023/02/12 10:28:51;;;;;;;1.70;0.70;;;;;;;2.19;52.42;99407.84;5092451;28;20070;-46
2023/02/12 10:31:36;;;;;;;1.70;0.50;;;;;;;2.16;52.21;99426.63;5103559;28;20042;-48
2023/02/12 10:34:14;;;;;;;1.67;0.70;;;;;;;2.21;52.15;99421.47;5088507;28;20648;-61
2023/02/12 10:36:45;;;;;;;0.80;0.50;;;;;;;2.07;52.36;99424.97;5103039;28;20114;-58
2023/02/12 10:39:17;;;;;;;4.93;0.80;;;;;;;2.05;52.64;99436.94;5105899;28;20082;-50
2023/02/12 10:41:52;;;;;;;3.95;0.93;;;;;;;2.01;52.43;99429.25;5077113;28;20055;-53
2023/02/12 10:44:18;;;;;;;3.15;1.17;;;;;;;1.88;52.53;99435.31;5089025;28;20528;-51
2023/02/12 10:46:44;;;;;;;2.28;0.70;;;;;;;1.72;53.10;99413.16;5103488;28;20048;-55
2023/02/12 10:49:12;;;;;;;3.60;0.82;;;;;;;2.07;53.05;99440.34;5099198;28;20047;-54
2023/02/12 10:51:53;;;;;;;3.60;0.68;;;;;;;2.21;52.84;99435.16;5098613;28;20035;-52
2023/02/12 10:54:32;;;;;;;4.30;1.10;;;;;;;2.69;52.82;99439.16;5102335;28;20081;-55
2023/02/12 10:57:05;;;;;;;3.35;0.65;;;;;;;3.54;51.27;99435.03;5096950;28;20040;-60
2023/02/12 10:59:31;;;;;;;2.88;0.80;;;;;;;5.17;49.95;99441.44;5099740;28;20574;-61
2023/02/12 11:01:57;;;;;;;2.25;0.70;;;;;;;7.14;46.06;99442.56;5099541;28;20048;-62
2023/02/12 11:04:26;;;;;;;1.42;0.75;;;;;;;8.49;44.26;99451.84;5095416;28;20040;-60
2023/02/12 11:06:57;;;;;;;2.57;0.90;;;;;;;9.25;41.81;99446.88;5095474;28;20464;-62
2023/02/12 11:09:34;;;;;;;5.78;1.20;;;;;;;8.37;42.45;99413.38;5106781;28;20040;-61
2023/02/12 11:12:00;;;;;;;2.30;1.10;;;;;;;8.58;43.21;99471.47;5097001;28;20040;-58
2023/02/12 11:14:25;;;;;;;3.67;1.00;;;;;;;7.46;44.03;99473.66;5102808;28;20051;-54
2023/02/12 11:17:00;;;;;;;4.30;0.85;;;;;;;6.29;46.81;99484.06;5096069;28;20063;-52
2023/02/12 11:19:28;;;;;;;5.30;1.52;;;;;;;5.18;55.20;99476.63;5090779;28;20040;-54
2023/02/12 11:22:09;;;;;;;2.53;1.23;;;;;;;5.49;57.94;99482.97;5091470;28;20040;-55
2023/02/12 11:24:36;;;;;;;4.40;0.93;;;;;;;6.09;60.79;99488.78;5109326;28;20050;-50
2023/02/12 11:27:21;;;;;;;2.30;0.80;;;;;;;7.55;60.24;99498.41;5107104;28;20039;-50
2023/02/12 11:30:23;;;;;;;2.75;0.82;;;;;;;7.07;60.36;99472.88;5091153;28;20043;-49
2023/02/12 11:32:50;;;;;;;1.48;0.60;;;;;;;7.09;63.80;99503.84;5072068;28;20070;-48
2023/02/12 11:35:25;;;;;;;2.08;0.90;;;;;;;7.43;63.11;99499.56;5090234;28;20089;-50
2023/02/12 11:38:01;;;;;;;5.05;0.82;;;;;;;6.59;64.20;99487.75;5109979;28;20039;-49
2023/02/12 11:40:34;;;;;;;2.40;0.85;;;;;;;6.23;68.88;99519.47;5088236;28;20043;-52
2023/02/12 11:43:04;;;;;;;2.38;0.70;;;;;;;5.83;68.30;99515.03;5106820;28;20051;-55
2023/02/12 11:45:36;;;;;;;2.10;0.70;;;;;;;4.99;69.83;99519.84;5108758;28;20040;-51
2023/02/12 11:48:30;;;;;;;1.67;0.80;;;;;;;4.24;72.44;99530.25;5108597;28;20085;-55
2023/02/12 11:50:59;;;;;;;2.67;1.13;;;;;;;3.69;74.49;99517.13;5110387;28;20160;-48
2023/02/12 11:53:29;;;;;;;1.23;0.65;;;;;;;3.26;75.28;99539.75;5105598;28;20088;-54
2023/02/12 11:55:58;;;;;;;2.45;0.80;;;;;;;3.01;77.04;99546.78;5101048;28;20434;-51